sensor_id;sensor_type;location;lat;lon;timestamp;P1;durP1;ratioP1;P2;durP2;ratioP2
58071;SDS011;60383;46.626;18.866;2022-11-20T00:01:38;24.00;;;12.50;;
58071;SDS011;60383;46.626;18.866;2022-11-20T00:04:03;23.27;;;11.75;;
58071;SDS011;60383;46.626;18.866;2022-11-20T00:06:29;25.75;;;13.40;;
58071;SDS011;60383;46.626;18.866;2022-11-20T00:08:55;24.52;;;13.07;;
58071;SDS011;60383;46.626;18.866;2022-11-20T00:11:23;23.80;;;12.65;;
58071;SDS011;60383;46.626;18.866;2022-11-20T00:13:52;23.52;;;12.38;;
58071;SDS011;60383;46.626;18.866;2022-11-20T00:16:20;22.83;;;12.18;;
58071;SDS011;60383;46.626;18.866;2022-11-20T00:18:47;24.58;;;12.55;;
58071;SDS011;60383;46.626;18.866;2022-11-20T00:21:14;23.40;;;12.68;;
58071;SDS011;60383;46.626;18.866;2022-11-20T00:23:41;24.75;;;12.55;;
58071;SDS011;60383;46.626;18.866;2022-11-20T00:26:08;23.65;;;11.70;;
58071;SDS011;60383;46.626;18.866;2022-11-20T00:28:36;23.10;;;12.18;;
58071;SDS011;60383;46.626;18.866;2022-11-20T00:31:05;20.63;;;10.93;;
58071;SDS011;60383;46.626;18.866;2022-11-20T00:33:36;22.15;;;12.27;;
58071;SDS011;60383;46.626;18.866;2022-11-20T00:36:02;22.30;;;11.65;;
58071;SDS011;60383;46.626;18.866;2022-11-20T00:38:29;25.20;;;13.05;;
58071;SDS011;60383;46.626;18.866;2022-11-20T00:40:56;20.45;;;11.52;;
58071;SDS011;60383;46.626;18.866;2022-11-20T00:43:26;21.83;;;10.57;;
58071;SDS011;60383;46.626;18.866;2022-11-20T00:45:58;24.45;;;12.52;;
58071;SDS011;60383;46.626;18.866;2022-11-20T00:48:25;19.95;;;10.50;;
58071;SDS011;60383;46.626;18.866;2022-11-20T00:50:51;22.02;;;11.70;;
58071;SDS011;60383;46.626;18.866;2022-11-20T00:53:16;23.13;;;11.65;;
58071;SDS011;60383;46.626;18.866;2022-11-20T00:55:42;22.05;;;11.63;;
58071;SDS011;60383;46.626;18.866;2022-11-20T00:58:07;23.30;;;12.73;;
58071;SDS011;60383;46.626;18.866;2022-11-20T01:00:33;23.75;;;11.82;;
58071;SDS011;60383;46.626;18.866;2022-11-20T01:02:59;23.48;;;12.32;;
58071;SDS011;60383;46.626;18.866;2022-11-20T01:05:24;23.65;;;12.25;;
58071;SDS011;60383;46.626;18.866;2022-11-20T01:07:49;23.45;;;12.57;;
58071;SDS011;60383;46.626;18.866;2022-11-20T01:10:15;25.17;;;12.60;;
58071;SDS011;60383;46.626;18.866;2022-11-20T01:12:40;21.63;;;11.95;;
58071;SDS011;60383;46.626;18.866;2022-11-20T01:15:05;23.40;;;11.30;;
58071;SDS011;60383;46.626;18.866;2022-11-20T01:17:31;24.35;;;12.48;;
58071;SDS011;60383;46.626;18.866;2022-11-20T01:19:57;22.50;;;12.52;;
58071;SDS011;60383;46.626;18.866;2022-11-20T01:22:22;23.25;;;12.02;;
58071;SDS011;60383;46.626;18.866;2022-11-20T01:24:48;22.10;;;11.43;;
58071;SDS011;60383;46.626;18.866;2022-11-20T01:27:13;22.30;;;11.98;;
58071;SDS011;60383;46.626;18.866;2022-11-20T01:29:39;22.70;;;11.70;;
58071;SDS011;60383;46.626;18.866;2022-11-20T01:32:04;24.08;;;11.43;;
58071;SDS011;60383;46.626;18.866;2022-11-20T01:34:29;22.88;;;12.18;;
58071;SDS011;60383;46.626;18.866;2022-11-20T01:36:55;20.35;;;10.93;;
58071;SDS011;60383;46.626;18.866;2022-11-20T01:39:22;23.58;;;11.82;;
58071;SDS011;60383;46.626;18.866;2022-11-20T01:41:50;21.23;;;11.07;;
58071;SDS011;60383;46.626;18.866;2022-11-20T01:44:57;19.80;;;10.90;;
58071;SDS011;60383;46.626;18.866;2022-11-20T01:50:18;22.85;;;12.38;;
58071;SDS011;60383;46.626;18.866;2022-11-20T01:52:49;22.40;;;12.10;;
58071;SDS011;60383;46.626;18.866;2022-11-20T01:55:19;22.98;;;11.05;;
58071;SDS011;60383;46.626;18.866;2022-11-20T01:57:51;22.50;;;11.73;;
58071;SDS011;60383;46.626;18.866;2022-11-20T02:00:18;23.27;;;11.48;;
58071;SDS011;60383;46.626;18.866;2022-11-20T02:02:50;22.50;;;11.90;;
58071;SDS011;60383;46.626;18.866;2022-11-20T02:05:22;20.80;;;11.80;;
58071;SDS011;60383;46.626;18.866;2022-11-20T02:07:52;22.23;;;11.95;;
58071;SDS011;60383;46.626;18.866;2022-11-20T02:10:19;23.50;;;11.43;;
58071;SDS011;60383;46.626;18.866;2022-11-20T02:12:45;23.30;;;12.48;;
58071;SDS011;60383;46.626;18.866;2022-11-20T02:15:30;19.30;;;10.68;;
58071;SDS011;60383;46.626;18.866;2022-11-20T02:17:57;21.55;;;11.32;;
58071;SDS011;60383;46.626;18.866;2022-11-20T02:20:22;20.40;;;11.15;;
58071;SDS011;60383;46.626;18.866;2022-11-20T02:22:55;20.52;;;11.48;;
58071;SDS011;60383;46.626;18.866;2022-11-20T02:25:24;22.05;;;10.95;;
58071;SDS011;60383;46.626;18.866;2022-11-20T02:27:52;19.73;;;10.43;;
58071;SDS011;60383;46.626;18.866;2022-11-20T02:30:17;21.02;;;11.77;;
58071;SDS011;60383;46.626;18.866;2022-11-20T02:32:43;28.33;;;17.17;;
58071;SDS011;60383;46.626;18.866;2022-11-20T02:35:09;22.33;;;11.98;;
58071;SDS011;60383;46.626;18.866;2022-11-20T02:37:59;23.80;;;12.73;;
58071;SDS011;60383;46.626;18.866;2022-11-20T02:40:27;26.00;;;14.98;;
58071;SDS011;60383;46.626;18.866;2022-11-20T02:42:55;23.23;;;11.73;;
58071;SDS011;60383;46.626;18.866;2022-11-20T02:45:21;23.90;;;12.15;;
58071;SDS011;60383;46.626;18.866;2022-11-20T02:47:48;24.40;;;12.40;;
58071;SDS011;60383;46.626;18.866;2022-11-20T02:50:13;20.95;;;10.80;;
58071;SDS011;60383;46.626;18.866;2022-11-20T02:52:39;21.35;;;10.65;;
58071;SDS011;60383;46.626;18.866;2022-11-20T02:55:04;19.98;;;11.55;;
58071;SDS011;60383;46.626;18.866;2022-11-20T02:57:30;28.38;;;14.85;;
58071;SDS011;60383;46.626;18.866;2022-11-20T02:59:55;23.05;;;11.55;;
58071;SDS011;60383;46.626;18.866;2022-11-20T03:02:21;24.98;;;13.10;;
58071;SDS011;60383;46.626;18.866;2022-11-20T03:04:46;32.33;;;17.52;;
58071;SDS011;60383;46.626;18.866;2022-11-20T03:07:12;21.30;;;11.88;;
58071;SDS011;60383;46.626;18.866;2022-11-20T03:09:37;21.35;;;11.57;;
58071;SDS011;60383;46.626;18.866;2022-11-20T03:12:02;37.00;;;20.30;;
58071;SDS011;60383;46.626;18.866;2022-11-20T03:14:28;24.45;;;12.85;;
58071;SDS011;60383;46.626;18.866;2022-11-20T03:16:54;18.90;;;10.30;;
58071;SDS011;60383;46.626;18.866;2022-11-20T03:19:20;23.13;;;10.98;;
58071;SDS011;60383;46.626;18.866;2022-11-20T03:21:45;22.75;;;11.27;;
58071;SDS011;60383;46.626;18.866;2022-11-20T03:24:11;25.90;;;14.00;;
58071;SDS011;60383;46.626;18.866;2022-11-20T03:26:37;21.42;;;11.85;;
58071;SDS011;60383;46.626;18.866;2022-11-20T03:29:03;21.00;;;11.43;;
58071;SDS011;60383;46.626;18.866;2022-11-20T03:31:33;23.85;;;11.65;;
58071;SDS011;60383;46.626;18.866;2022-11-20T03:36:26;20.25;;;10.40;;
58071;SDS011;60383;46.626;18.866;2022-11-20T03:38:53;18.00;;;10.45;;
58071;SDS011;60383;46.626;18.866;2022-11-20T03:41:20;17.38;;;9.15;;
58071;SDS011;60383;46.626;18.866;2022-11-20T03:43:48;18.33;;;9.88;;
58071;SDS011;60383;46.626;18.866;2022-11-20T03:46:14;20.95;;;10.93;;
58071;SDS011;60383;46.626;18.866;2022-11-20T03:48:40;21.05;;;11.60;;
58071;SDS011;60383;46.626;18.866;2022-11-20T03:51:06;22.88;;;11.07;;
58071;SDS011;60383;46.626;18.866;2022-11-20T03:53:43;21.77;;;10.55;;
58071;SDS011;60383;46.626;18.866;2022-11-20T03:56:10;19.05;;;10.82;;
58071;SDS011;60383;46.626;18.866;2022-11-20T03:58:37;20.75;;;9.95;;
58071;SDS011;60383;46.626;18.866;2022-11-20T04:01:07;21.05;;;10.75;;
58071;SDS011;60383;46.626;18.866;2022-11-20T04:03:34;19.52;;;10.68;;
58071;SDS011;60383;46.626;18.866;2022-11-20T04:06:01;21.55;;;11.15;;
58071;SDS011;60383;46.626;18.866;2022-11-20T04:08:35;21.42;;;10.80;;
58071;SDS011;60383;46.626;18.866;2022-11-20T04:11:10;20.27;;;11.20;;
58071;SDS011;60383;46.626;18.866;2022-11-20T04:14:03;33.05;;;18.02;;
58071;SDS011;60383;46.626;18.866;2022-11-20T04:16:31;22.30;;;11.18;;
58071;SDS011;60383;46.626;18.866;2022-11-20T04:18:58;18.38;;;10.48;;
58071;SDS011;60383;46.626;18.866;2022-11-20T04:21:25;21.15;;;10.00;;
58071;SDS011;60383;46.626;18.866;2022-11-20T04:23:52;21.08;;;10.20;;
58071;SDS011;60383;46.626;18.866;2022-11-20T04:26:18;19.50;;;9.40;;
58071;SDS011;60383;46.626;18.866;2022-11-20T04:28:44;16.88;;;9.13;;
58071;SDS011;60383;46.626;18.866;2022-11-20T04:31:16;18.48;;;9.88;;
58071;SDS011;60383;46.626;18.866;2022-11-20T04:33:46;16.05;;;9.52;;
58071;SDS011;60383;46.626;18.866;2022-11-20T04:36:12;17.83;;;9.95;;
58071;SDS011;60383;46.626;18.866;2022-11-20T04:38:40;17.10;;;9.63;;
58071;SDS011;60383;46.626;18.866;2022-11-20T04:41:06;17.08;;;9.93;;
58071;SDS011;60383;46.626;18.866;2022-11-20T04:43:33;18.35;;;9.70;;
58071;SDS011;60383;46.626;18.866;2022-11-20T04:45:59;18.73;;;9.52;;
58071;SDS011;60383;46.626;18.866;2022-11-20T04:48:25;24.70;;;13.45;;
58071;SDS011;60383;46.626;18.866;2022-11-20T04:50:52;19.40;;;10.48;;
58071;SDS011;60383;46.626;18.866;2022-11-20T04:53:18;16.33;;;8.80;;
58071;SDS011;60383;46.626;18.866;2022-11-20T04:55:44;18.77;;;10.68;;
58071;SDS011;60383;46.626;18.866;2022-11-20T04:58:10;16.08;;;8.98;;
58071;SDS011;60383;46.626;18.866;2022-11-20T05:00:36;18.23;;;10.13;;
58071;SDS011;60383;46.626;18.866;2022-11-20T05:03:02;19.17;;;9.77;;
58071;SDS011;60383;46.626;18.866;2022-11-20T05:05:27;17.92;;;10.63;;
58071;SDS011;60383;46.626;18.866;2022-11-20T05:07:55;17.38;;;9.48;;
58071;SDS011;60383;46.626;18.866;2022-11-20T05:10:22;16.33;;;9.52;;
58071;SDS011;60383;46.626;18.866;2022-11-20T05:12:48;18.35;;;9.45;;
58071;SDS011;60383;46.626;18.866;2022-11-20T05:15:13;18.83;;;9.20;;
58071;SDS011;60383;46.626;18.866;2022-11-20T05:17:39;16.77;;;9.00;;
58071;SDS011;60383;46.626;18.866;2022-11-20T05:20:04;17.75;;;9.18;;
58071;SDS011;60383;46.626;18.866;2022-11-20T05:22:30;17.58;;;9.18;;
58071;SDS011;60383;46.626;18.866;2022-11-20T05:24:55;18.65;;;10.43;;
58071;SDS011;60383;46.626;18.866;2022-11-20T05:27:21;16.45;;;9.60;;
58071;SDS011;60383;46.626;18.866;2022-11-20T05:29:46;20.00;;;10.13;;
58071;SDS011;60383;46.626;18.866;2022-11-20T05:32:11;17.73;;;9.90;;
58071;SDS011;60383;46.626;18.866;2022-11-20T05:34:37;21.73;;;10.52;;
58071;SDS011;60383;46.626;18.866;2022-11-20T05:37:02;21.05;;;11.35;;
58071;SDS011;60383;46.626;18.866;2022-11-20T05:39:28;22.05;;;11.13;;
58071;SDS011;60383;46.626;18.866;2022-11-20T05:41:53;18.30;;;10.23;;
58071;SDS011;60383;46.626;18.866;2022-11-20T05:44:37;18.35;;;10.07;;
58071;SDS011;60383;46.626;18.866;2022-11-20T05:47:02;17.92;;;9.90;;
58071;SDS011;60383;46.626;18.866;2022-11-20T05:49:28;20.00;;;11.15;;
58071;SDS011;60383;46.626;18.866;2022-11-20T05:51:53;19.55;;;10.18;;
58071;SDS011;60383;46.626;18.866;2022-11-20T05:54:18;20.38;;;10.65;;
58071;SDS011;60383;46.626;18.866;2022-11-20T05:56:44;19.88;;;10.25;;
58071;SDS011;60383;46.626;18.866;2022-11-20T05:59:09;35.90;;;18.92;;
58071;SDS011;60383;46.626;18.866;2022-11-20T06:01:35;20.90;;;12.02;;
58071;SDS011;60383;46.626;18.866;2022-11-20T06:04:01;19.88;;;10.52;;
58071;SDS011;60383;46.626;18.866;2022-11-20T06:06:27;19.30;;;10.38;;
58071;SDS011;60383;46.626;18.866;2022-11-20T06:08:53;21.25;;;11.52;;
58071;SDS011;60383;46.626;18.866;2022-11-20T06:11:19;19.65;;;10.43;;
58071;SDS011;60383;46.626;18.866;2022-11-20T06:13:45;22.73;;;11.25;;
58071;SDS011;60383;46.626;18.866;2022-11-20T06:16:11;19.52;;;10.95;;
58071;SDS011;60383;46.626;18.866;2022-11-20T06:18:39;19.15;;;10.63;;
58071;SDS011;60383;46.626;18.866;2022-11-20T06:21:05;21.98;;;11.18;;
58071;SDS011;60383;46.626;18.866;2022-11-20T06:23:33;20.60;;;11.18;;
58071;SDS011;60383;46.626;18.866;2022-11-20T06:26:41;25.25;;;12.40;;
58071;SDS011;60383;46.626;18.866;2022-11-20T06:28:48;20.38;;;11.93;;
58071;SDS011;60383;46.626;18.866;2022-11-20T06:31:16;22.70;;;10.63;;
58071;SDS011;60383;46.626;18.866;2022-11-20T06:33:43;20.80;;;11.25;;
58071;SDS011;60383;46.626;18.866;2022-11-20T06:36:09;20.95;;;11.38;;
58071;SDS011;60383;46.626;18.866;2022-11-20T06:38:37;34.15;;;19.25;;
58071;SDS011;60383;46.626;18.866;2022-11-20T06:41:04;26.92;;;15.13;;
58071;SDS011;60383;46.626;18.866;2022-11-20T06:43:31;23.50;;;12.85;;
58071;SDS011;60383;46.626;18.866;2022-11-20T06:45:57;25.67;;;13.18;;
58071;SDS011;60383;46.626;18.866;2022-11-20T06:48:25;21.55;;;11.20;;
58071;SDS011;60383;46.626;18.866;2022-11-20T06:50:52;22.35;;;12.52;;
58071;SDS011;60383;46.626;18.866;2022-11-20T06:53:17;23.70;;;11.48;;
58071;SDS011;60383;46.626;18.866;2022-11-20T06:55:46;23.30;;;11.68;;
58071;SDS011;60383;46.626;18.866;2022-11-20T06:58:13;24.08;;;11.88;;
58071;SDS011;60383;46.626;18.866;2022-11-20T07:00:39;23.70;;;12.35;;
58071;SDS011;60383;46.626;18.866;2022-11-20T07:03:05;25.05;;;13.77;;
58071;SDS011;60383;46.626;18.866;2022-11-20T07:05:31;30.50;;;14.77;;
58071;SDS011;60383;46.626;18.866;2022-11-20T07:07:57;24.30;;;12.57;;
58071;SDS011;60383;46.626;18.866;2022-11-20T07:10:23;24.27;;;12.40;;
58071;SDS011;60383;46.626;18.866;2022-11-20T07:12:50;25.05;;;12.40;;
58071;SDS011;60383;46.626;18.866;2022-11-20T07:15:17;22.48;;;12.13;;
58071;SDS011;60383;46.626;18.866;2022-11-20T07:17:43;26.45;;;13.73;;
58071;SDS011;60383;46.626;18.866;2022-11-20T07:20:09;25.73;;;12.02;;
58071;SDS011;60383;46.626;18.866;2022-11-20T07:22:37;25.60;;;13.38;;
58071;SDS011;60383;46.626;18.866;2022-11-20T07:25:02;24.80;;;12.25;;
58071;SDS011;60383;46.626;18.866;2022-11-20T07:27:29;24.38;;;12.30;;
58071;SDS011;60383;46.626;18.866;2022-11-20T07:29:54;23.17;;;11.65;;
58071;SDS011;60383;46.626;18.866;2022-11-20T07:32:20;23.17;;;12.13;;
58071;SDS011;60383;46.626;18.866;2022-11-20T07:34:46;25.00;;;13.23;;
58071;SDS011;60383;46.626;18.866;2022-11-20T07:37:12;25.30;;;13.35;;
58071;SDS011;60383;46.626;18.866;2022-11-20T07:39:37;27.05;;;13.73;;
58071;SDS011;60383;46.626;18.866;2022-11-20T07:42:03;27.70;;;14.43;;
58071;SDS011;60383;46.626;18.866;2022-11-20T07:44:28;25.70;;;13.50;;
58071;SDS011;60383;46.626;18.866;2022-11-20T07:46:54;26.63;;;13.45;;
58071;SDS011;60383;46.626;18.866;2022-11-20T07:49:19;24.42;;;13.43;;
58071;SDS011;60383;46.626;18.866;2022-11-20T07:51:45;27.08;;;13.93;;
58071;SDS011;60383;46.626;18.866;2022-11-20T07:54:10;26.30;;;13.70;;
58071;SDS011;60383;46.626;18.866;2022-11-20T07:56:35;27.42;;;14.25;;
58071;SDS011;60383;46.626;18.866;2022-11-20T07:59:01;26.58;;;14.55;;
58071;SDS011;60383;46.626;18.866;2022-11-20T08:01:26;25.10;;;14.00;;
58071;SDS011;60383;46.626;18.866;2022-11-20T08:03:51;26.75;;;14.23;;
58071;SDS011;60383;46.626;18.866;2022-11-20T08:06:17;30.35;;;15.15;;
58071;SDS011;60383;46.626;18.866;2022-11-20T08:08:44;28.83;;;14.77;;
58071;SDS011;60383;46.626;18.866;2022-11-20T08:11:09;29.20;;;15.13;;
58071;SDS011;60383;46.626;18.866;2022-11-20T08:13:54;30.42;;;14.98;;
58071;SDS011;60383;46.626;18.866;2022-11-20T08:16:38;27.40;;;14.13;;
58071;SDS011;60383;46.626;18.866;2022-11-20T08:19:07;26.45;;;15.13;;
58071;SDS011;60383;46.626;18.866;2022-11-20T08:21:33;26.70;;;13.85;;
58071;SDS011;60383;46.626;18.866;2022-11-20T08:23:58;26.45;;;13.45;;
58071;SDS011;60383;46.626;18.866;2022-11-20T08:26:24;25.52;;;14.63;;
58071;SDS011;60383;46.626;18.866;2022-11-20T08:28:53;29.05;;;14.23;;
58071;SDS011;60383;46.626;18.866;2022-11-20T08:31:20;28.77;;;14.10;;
58071;SDS011;60383;46.626;18.866;2022-11-20T08:33:46;27.08;;;14.45;;
58071;SDS011;60383;46.626;18.866;2022-11-20T08:36:12;26.98;;;14.55;;
58071;SDS011;60383;46.626;18.866;2022-11-20T08:38:37;25.85;;;14.88;;
58071;SDS011;60383;46.626;18.866;2022-11-20T08:41:03;26.40;;;14.55;;
58071;SDS011;60383;46.626;18.866;2022-11-20T08:43:48;25.77;;;13.50;;
58071;SDS011;60383;46.626;18.866;2022-11-20T08:46:18;29.27;;;14.27;;
58071;SDS011;60383;46.626;18.866;2022-11-20T08:48:44;31.23;;;14.85;;
58071;SDS011;60383;46.626;18.866;2022-11-20T08:51:09;29.48;;;14.40;;
58071;SDS011;60383;46.626;18.866;2022-11-20T08:53:36;25.70;;;14.38;;
58071;SDS011;60383;46.626;18.866;2022-11-20T08:56:01;26.48;;;14.32;;
58071;SDS011;60383;46.626;18.866;2022-11-20T08:58:27;25.90;;;14.25;;
58071;SDS011;60383;46.626;18.866;2022-11-20T09:00:52;25.98;;;12.98;;
58071;SDS011;60383;46.626;18.866;2022-11-20T09:03:18;25.50;;;13.77;;
58071;SDS011;60383;46.626;18.866;2022-11-20T09:05:43;24.73;;;12.65;;
58071;SDS011;60383;46.626;18.866;2022-11-20T09:08:09;24.48;;;12.65;;
58071;SDS011;60383;46.626;18.866;2022-11-20T09:10:34;24.00;;;13.73;;
58071;SDS011;60383;46.626;18.866;2022-11-20T09:13:00;25.58;;;14.20;;
58071;SDS011;60383;46.626;18.866;2022-11-20T09:15:26;22.33;;;12.90;;
58071;SDS011;60383;46.626;18.866;2022-11-20T09:17:56;24.92;;;13.60;;
58071;SDS011;60383;46.626;18.866;2022-11-20T09:22:48;23.52;;;12.52;;
58071;SDS011;60383;46.626;18.866;2022-11-20T09:25:14;22.38;;;12.98;;
58071;SDS011;60383;46.626;18.866;2022-11-20T09:27:39;21.20;;;11.88;;
58071;SDS011;60383;46.626;18.866;2022-11-20T09:30:08;21.92;;;12.00;;
58071;SDS011;60383;46.626;18.866;2022-11-20T09:32:34;24.17;;;13.65;;
58071;SDS011;60383;46.626;18.866;2022-11-20T09:35:00;24.63;;;12.25;;
58071;SDS011;60383;46.626;18.866;2022-11-20T09:37:26;23.10;;;13.00;;
58071;SDS011;60383;46.626;18.866;2022-11-20T09:39:51;24.38;;;12.88;;
58071;SDS011;60383;46.626;18.866;2022-11-20T09:45:35;24.35;;;12.85;;
58071;SDS011;60383;46.626;18.866;2022-11-20T09:48:41;20.15;;;11.57;;
58071;SDS011;60383;46.626;18.866;2022-11-20T09:54:06;19.25;;;11.38;;
58071;SDS011;60383;46.626;18.866;2022-11-20T09:56:56;23.35;;;11.82;;
58071;SDS011;60383;46.626;18.866;2022-11-20T10:01:57;25.65;;;13.48;;
58071;SDS011;60383;46.626;18.866;2022-11-20T10:04:25;23.60;;;13.68;;
58071;SDS011;60383;46.626;18.866;2022-11-20T10:07:00;23.25;;;11.85;;
58071;SDS011;60383;46.626;18.866;2022-11-20T10:09:38;20.48;;;11.75;;
58071;SDS011;60383;46.626;18.866;2022-11-20T10:12:31;20.70;;;12.25;;
58071;SDS011;60383;46.626;18.866;2022-11-20T10:15:30;22.73;;;12.95;;
58071;SDS011;60383;46.626;18.866;2022-11-20T10:18:14;20.25;;;11.35;;
58071;SDS011;60383;46.626;18.866;2022-11-20T10:21:00;22.40;;;11.70;;
58071;SDS011;60383;46.626;18.866;2022-11-20T10:31:52;19.08;;;11.55;;
58071;SDS011;60383;46.626;18.866;2022-11-20T10:37:00;20.17;;;11.95;;
58071;SDS011;60383;46.626;18.866;2022-11-20T10:39:35;20.05;;;11.20;;
58071;SDS011;60383;46.626;18.866;2022-11-20T10:42:11;20.92;;;11.05;;
58071;SDS011;60383;46.626;18.866;2022-11-20T10:44:42;17.98;;;9.77;;
58071;SDS011;60383;46.626;18.866;2022-11-20T10:47:39;18.27;;;10.50;;
58071;SDS011;60383;46.626;18.866;2022-11-20T10:50:05;19.85;;;10.27;;
58071;SDS011;60383;46.626;18.866;2022-11-20T10:55:54;17.95;;;10.25;;
58071;SDS011;60383;46.626;18.866;2022-11-20T11:01:05;22.58;;;11.65;;
58071;SDS011;60383;46.626;18.866;2022-11-20T11:03:38;21.17;;;12.15;;
58071;SDS011;60383;46.626;18.866;2022-11-20T11:06:07;19.38;;;11.25;;
58071;SDS011;60383;46.626;18.866;2022-11-20T11:08:41;19.30;;;11.35;;
58071;SDS011;60383;46.626;18.866;2022-11-20T11:11:15;17.27;;;10.45;;
58071;SDS011;60383;46.626;18.866;2022-11-20T11:13:46;17.88;;;10.82;;
58071;SDS011;60383;46.626;18.866;2022-11-20T11:16:25;20.13;;;11.60;;
58071;SDS011;60383;46.626;18.866;2022-11-20T11:19:02;17.48;;;10.63;;
58071;SDS011;60383;46.626;18.866;2022-11-20T11:21:32;17.50;;;11.40;;
58071;SDS011;60383;46.626;18.866;2022-11-20T11:24:02;17.70;;;9.80;;
58071;SDS011;60383;46.626;18.866;2022-11-20T11:26:29;18.40;;;10.52;;
58071;SDS011;60383;46.626;18.866;2022-11-20T11:28:56;19.25;;;10.05;;
58071;SDS011;60383;46.626;18.866;2022-11-20T11:31:29;19.17;;;9.95;;
58071;SDS011;60383;46.626;18.866;2022-11-20T11:34:08;18.00;;;9.90;;
58071;SDS011;60383;46.626;18.866;2022-11-20T11:36:37;18.42;;;10.10;;
58071;SDS011;60383;46.626;18.866;2022-11-20T11:39:03;19.45;;;9.82;;
58071;SDS011;60383;46.626;18.866;2022-11-20T11:41:32;18.23;;;9.52;;
58071;SDS011;60383;46.626;18.866;2022-11-20T11:47:26;19.65;;;10.82;;
58071;SDS011;60383;46.626;18.866;2022-11-20T11:50:13;19.10;;;10.75;;
58071;SDS011;60383;46.626;18.866;2022-11-20T11:55:38;19.85;;;10.32;;
58071;SDS011;60383;46.626;18.866;2022-11-20T12:00:41;22.15;;;12.00;;
58071;SDS011;60383;46.626;18.866;2022-11-20T12:03:18;20.48;;;11.80;;
58071;SDS011;60383;46.626;18.866;2022-11-20T12:13:44;18.52;;;11.43;;
58071;SDS011;60383;46.626;18.866;2022-11-20T12:16:18;17.67;;;11.05;;
58071;SDS011;60383;46.626;18.866;2022-11-20T12:18:49;19.08;;;11.40;;
58071;SDS011;60383;46.626;18.866;2022-11-20T12:22:01;20.05;;;11.73;;
58071;SDS011;60383;46.626;18.866;2022-11-20T12:32:29;17.40;;;10.60;;
58071;SDS011;60383;46.626;18.866;2022-11-20T12:37:48;17.05;;;10.32;;
58071;SDS011;60383;46.626;18.866;2022-11-20T12:43:26;20.67;;;11.57;;
58071;SDS011;60383;46.626;18.866;2022-11-20T13:00:15;22.95;;;13.52;;
58071;SDS011;60383;46.626;18.866;2022-11-20T13:08:25;25.75;;;13.82;;
58071;SDS011;60383;46.626;18.866;2022-11-20T13:10:54;22.35;;;12.52;;
58071;SDS011;60383;46.626;18.866;2022-11-20T13:16:54;20.52;;;12.65;;
58071;SDS011;60383;46.626;18.866;2022-11-20T13:19:23;26.60;;;15.98;;
58071;SDS011;60383;46.626;18.866;2022-11-20T13:21:49;24.65;;;14.05;;
58071;SDS011;60383;46.626;18.866;2022-11-20T13:26:59;24.02;;;14.82;;
58071;SDS011;60383;46.626;18.866;2022-11-20T13:29:29;24.27;;;14.38;;
58071;SDS011;60383;46.626;18.866;2022-11-20T13:34:50;24.38;;;14.50;;
58071;SDS011;60383;46.626;18.866;2022-11-20T13:37:25;24.90;;;16.42;;
58071;SDS011;60383;46.626;18.866;2022-11-20T13:40:04;25.75;;;15.02;;
58071;SDS011;60383;46.626;18.866;2022-11-20T13:42:33;21.02;;;12.68;;
58071;SDS011;60383;46.626;18.866;2022-11-20T13:45:11;24.17;;;13.77;;
58071;SDS011;60383;46.626;18.866;2022-11-20T13:47:48;25.80;;;14.40;;
58071;SDS011;60383;46.626;18.866;2022-11-20T13:50:15;21.08;;;13.00;;
58071;SDS011;60383;46.626;18.866;2022-11-20T13:55:35;22.98;;;14.05;;
58071;SDS011;60383;46.626;18.866;2022-11-20T14:03:47;34.33;;;20.38;;
58071;SDS011;60383;46.626;18.866;2022-11-20T14:08:46;25.65;;;15.50;;
58071;SDS011;60383;46.626;18.866;2022-11-20T14:11:16;28.08;;;15.75;;
58071;SDS011;60383;46.626;18.866;2022-11-20T14:13:52;26.17;;;15.40;;
58071;SDS011;60383;46.626;18.866;2022-11-20T14:16:21;28.95;;;16.48;;
58071;SDS011;60383;46.626;18.866;2022-11-20T14:18:48;28.65;;;16.70;;
58071;SDS011;60383;46.626;18.866;2022-11-20T14:21:24;32.03;;;17.25;;
58071;SDS011;60383;46.626;18.866;2022-11-20T14:23:52;32.60;;;18.00;;
58071;SDS011;60383;46.626;18.866;2022-11-20T14:26:18;30.95;;;17.40;;
58071;SDS011;60383;46.626;18.866;2022-11-20T14:28:49;26.10;;;16.58;;
58071;SDS011;60383;46.626;18.866;2022-11-20T14:31:34;28.15;;;16.20;;
58071;SDS011;60383;46.626;18.866;2022-11-20T14:33:59;35.72;;;21.23;;
58071;SDS011;60383;46.626;18.866;2022-11-20T14:36:27;45.88;;;30.65;;
58071;SDS011;60383;46.626;18.866;2022-11-20T14:38:52;36.00;;;22.00;;
58071;SDS011;60383;46.626;18.866;2022-11-20T14:41:22;37.33;;;20.40;;
58071;SDS011;60383;46.626;18.866;2022-11-20T14:43:54;35.25;;;20.27;;
58071;SDS011;60383;46.626;18.866;2022-11-20T14:46:22;36.75;;;20.95;;
58071;SDS011;60383;46.626;18.866;2022-11-20T14:48:53;31.13;;;18.45;;
58071;SDS011;60383;46.626;18.866;2022-11-20T14:53:52;31.00;;;18.80;;
58071;SDS011;60383;46.626;18.866;2022-11-20T14:56:24;33.65;;;20.27;;
58071;SDS011;60383;46.626;18.866;2022-11-20T14:58:56;32.97;;;21.15;;
58071;SDS011;60383;46.626;18.866;2022-11-20T15:01:29;37.80;;;24.50;;
58071;SDS011;60383;46.626;18.866;2022-11-20T15:06:27;39.65;;;25.05;;
58071;SDS011;60383;46.626;18.866;2022-11-20T15:09:01;44.00;;;27.25;;
58071;SDS011;60383;46.626;18.866;2022-11-20T15:11:29;44.97;;;27.30;;
58071;SDS011;60383;46.626;18.866;2022-11-20T15:14:04;49.25;;;29.48;;
58071;SDS011;60383;46.626;18.866;2022-11-20T15:16:31;55.50;;;34.67;;
58071;SDS011;60383;46.626;18.866;2022-11-20T15:18:57;60.63;;;35.30;;
58071;SDS011;60383;46.626;18.866;2022-11-20T15:21:22;61.88;;;36.63;;
58071;SDS011;60383;46.626;18.866;2022-11-20T15:23:49;58.15;;;36.13;;
58071;SDS011;60383;46.626;18.866;2022-11-20T15:26:17;59.20;;;35.97;;
58071;SDS011;60383;46.626;18.866;2022-11-20T15:28:47;57.50;;;35.33;;
58071;SDS011;60383;46.626;18.866;2022-11-20T15:31:16;52.00;;;31.35;;
58071;SDS011;60383;46.626;18.866;2022-11-20T15:33:43;43.20;;;27.17;;
58071;SDS011;60383;46.626;18.866;2022-11-20T15:36:09;40.72;;;25.70;;
58071;SDS011;60383;46.626;18.866;2022-11-20T15:38:35;38.97;;;24.40;;
58071;SDS011;60383;46.626;18.866;2022-11-20T15:41:01;32.50;;;21.50;;
58071;SDS011;60383;46.626;18.866;2022-11-20T15:43:27;32.78;;;21.05;;
58071;SDS011;60383;46.626;18.866;2022-11-20T15:45:56;35.95;;;22.85;;
58071;SDS011;60383;46.626;18.866;2022-11-20T15:48:33;32.72;;;20.83;;
58071;SDS011;60383;46.626;18.866;2022-11-20T15:51:24;34.70;;;22.07;;
58071;SDS011;60383;46.626;18.866;2022-11-20T15:53:52;33.80;;;22.85;;
58071;SDS011;60383;46.626;18.866;2022-11-20T15:56:17;35.45;;;22.55;;
58071;SDS011;60383;46.626;18.866;2022-11-20T15:58:43;39.92;;;26.42;;
58071;SDS011;60383;46.626;18.866;2022-11-20T16:01:12;39.00;;;25.60;;
58071;SDS011;60383;46.626;18.866;2022-11-20T16:03:39;38.72;;;23.58;;
58071;SDS011;60383;46.626;18.866;2022-11-20T16:06:05;30.27;;;19.58;;
58071;SDS011;60383;46.626;18.866;2022-11-20T16:08:30;27.98;;;18.33;;
58071;SDS011;60383;46.626;18.866;2022-11-20T16:10:56;31.33;;;19.90;;